Time;durP1;ratioP1;P1;durP2;ratioP2;P2;SDS_P1;SDS_P2;PMS_P1;PMS_P2;Temp;Humidity;BMP_temperature;BMP_pressure;BME280_temperature;BME280_humidity;BME280_pressure;Samples;Min_cycle;Max_cycle;Signal;HPM_P1;HPM_P2
2020/12/06 00:01:39;;;;;;;25.20;14.80;;;3.90;89.50;;;4.54;71.17;99154.69;4957555;29;20057;-81
2020/12/06 00:04:06;;;;;;;27.35;15.35;;;3.90;89.50;;;4.53;71.75;99147.59;4958252;28;20079;-81
2020/12/06 00:06:33;;;;;;;25.33;14.43;;;3.90;89.70;;;4.57;71.78;99137.31;4959145;28;20404;-80
2020/12/06 00:09:00;;;;;;;25.48;15.27;;;3.90;89.70;;;4.54;71.30;99132.31;4958500;28;20516;-80
2020/12/06 00:11:27;;;;;;;23.10;14.30;;;3.90;89.40;;;4.53;71.30;99117.97;4955697;28;20047;-81
2020/12/06 00:13:54;;;;;;;27.02;14.15;;;3.90;89.20;;;4.53;71.27;99117.97;4955615;28;20082;-81
2020/12/06 00:16:21;;;;;;;22.75;14.25;;;3.90;89.20;;;4.53;71.45;99109.91;4970060;28;20047;-81
2020/12/06 00:18:49;;;;;;;28.15;15.48;;;3.90;89.40;;;4.55;71.10;99091.72;4955096;28;20047;-80
2020/12/06 00:21:17;;;;;;;22.58;13.93;;;3.90;89.30;;;4.53;71.43;99074.88;4955735;28;20844;-81
2020/12/06 00:23:45;;;;;;;25.75;15.65;;;3.90;89.40;;;4.52;71.41;99061.59;4954678;28;20499;-81
2020/12/06 00:26:12;;;;;;;23.75;14.93;;;3.90;89.30;;;4.53;71.94;99065.97;4955384;28;20557;-81
2020/12/06 00:28:39;;;;;;;22.25;14.15;;;4.00;89.20;;;4.51;71.34;99063.44;4955722;28;20040;-81
2020/12/06 00:31:06;;;;;;;21.77;13.57;;;4.00;89.10;;;4.50;71.76;99083.34;4955144;28;20130;-81
2020/12/06 00:33:32;;;;;;;23.85;13.77;;;4.00;89.40;;;4.51;72.04;99085.00;4955721;28;20040;-81
2020/12/06 00:36:00;;;;;;;21.85;13.77;;;4.30;89.50;;;4.53;72.22;99093.72;4955507;28;20511;-81
2020/12/06 00:38:27;;;;;;;24.60;13.68;;;4.10;89.30;;;4.56;72.31;99100.63;4955381;28;20095;-81
2020/12/06 00:40:54;;;;;;;22.83;13.52;;;4.10;89.50;;;4.54;72.19;99079.25;4956205;28;20047;-81
2020/12/06 00:43:20;;;;;;;23.08;13.65;;;4.10;89.40;;;4.56;72.20;99066.44;4955977;28;20048;-81
2020/12/06 00:45:47;;;;;;;23.27;14.27;;;4.10;89.20;;;4.56;72.02;99061.06;4957243;28;20074;-81
2020/12/06 00:48:14;;;;;;;24.13;14.20;;;4.10;89.40;;;4.55;72.29;99064.78;4970893;28;20067;-81
2020/12/06 00:50:41;;;;;;;23.98;13.00;;;4.20;89.40;;;4.56;72.31;99054.84;4957310;28;20432;-81
2020/12/06 00:53:09;;;;;;;24.65;14.18;;;4.20;89.30;;;4.58;72.56;99064.41;4974736;28;20047;-80
2020/12/06 00:55:36;;;;;;;27.52;13.45;;;4.20;89.30;;;4.59;72.03;99055.31;4974273;28;20766;-81
2020/12/06 00:58:03;;;;;;;22.38;13.38;;;4.20;89.20;;;4.63;72.26;99051.22;4974683;28;20082;-80
2020/12/06 01:00:30;;;;;;;27.17;14.63;;;4.20;89.20;;;4.62;72.24;99054.94;4960119;28;20043;-81
2020/12/06 01:02:56;;;;;;;22.48;13.90;;;4.20;89.50;;;4.59;72.62;99055.31;4960062;28;20047;-81
2020/12/06 01:05:23;;;;;;;21.77;13.55;;;4.40;89.50;;;4.63;72.59;99051.22;4957980;29;20082;-81
2020/12/06 01:07:50;;;;;;;22.85;14.05;;;4.30;89.40;;;4.64;72.24;99058.28;4957738;29;20098;-81
2020/12/06 01:10:18;;;;;;;21.80;12.65;;;4.20;89.10;;;4.68;71.95;99062.31;4957779;28;20055;-81
2020/12/06 01:12:44;;;;;;;25.95;14.68;;;4.20;89.20;;;4.65;72.10;99081.53;4958775;29;20065;-81
2020/12/06 01:15:12;;;;;;;19.85;12.85;;;4.20;89.20;;;4.64;71.74;99062.84;4958674;28;20082;-81
2020/12/06 01:17:39;;;;;;;21.38;13.05;;;4.20;89.30;;;4.65;72.26;99057.28;4958709;29;20082;-81
2020/12/06 01:20:07;;;;;;;20.95;13.52;;;4.20;89.40;;;4.66;72.55;99072.44;4958831;29;20047;-81
2020/12/06 01:22:34;;;;;;;23.67;13.68;;;4.20;89.70;;;4.70;72.01;99049.47;4959228;29;20550;-81
2020/12/06 01:25:01;;;;;;;23.15;13.07;;;4.30;89.70;;;4.63;71.87;99040.44;4958413;28;20509;-81
2020/12/06 01:27:29;;;;;;;21.55;13.07;;;4.10;89.50;;;4.63;71.79;99067.41;4957136;28;20071;-81
2020/12/06 01:29:56;;;;;;;20.75;13.48;;;4.10;89.40;;;4.61;71.75;99066.75;4958638;29;20114;-81
2020/12/06 01:32:23;;;;;;;23.23;13.00;;;4.30;89.50;;;4.61;71.88;99052.44;4958472;28;20397;-81
2020/12/06 01:34:50;;;;;;;21.13;12.85;;;4.00;89.40;;;4.61;71.54;99060.53;4958333;28;20069;-81
2020/12/06 01:37:17;;;;;;;21.50;13.02;;;4.00;89.30;;;4.58;71.72;99064.41;4958079;29;20082;-80
2020/12/06 01:39:43;;;;;;;21.13;13.38;;;4.00;89.40;;;4.58;71.64;99064.41;4958087;28;20464;-81
2020/12/06 01:42:10;;;;;;;21.00;12.45;;;4.00;89.50;;;4.54;71.85;99052.31;4958848;28;20094;-80
2020/12/06 01:44:38;;;;;;;19.42;12.18;;;4.00;89.70;;;4.54;71.88;99060.41;4967692;28;20078;-81
2020/12/06 01:47:05;;;;;;;20.58;13.07;;;4.00;89.40;;;4.49;71.68;99052.00;4976051;28;20416;-80
2020/12/06 01:49:36;;;;;;;20.77;12.45;;;3.90;89.30;;;4.45;71.80;99043.44;4977446;28;20050;-80
2020/12/06 01:52:06;;;;;;;20.65;13.00;;;3.90;89.30;;;4.42;71.68;99048.38;4977502;28;20396;-81
2020/12/06 01:54:34;;;;;;;23.13;13.47;;;3.90;89.30;;;4.44;71.83;99035.56;4977166;28;20046;-81
2020/12/06 01:57:01;;;;;;;21.85;13.23;;;3.90;89.40;;;4.47;71.64;99029.81;4977213;28;20302;-81
2020/12/06 01:59:28;;;;;;;21.20;12.90;;;3.90;89.60;;;4.49;71.70;99027.75;4977424;28;20093;-81
2020/12/06 02:01:59;;;;;;;21.55;13.75;;;3.90;89.80;;;4.52;72.13;99022.03;4975403;28;20042;-80
2020/12/06 02:04:28;;;;;;;24.60;15.07;;;3.90;90.00;;;4.54;72.01;99035.31;4982367;28;20046;-81
2020/12/06 02:06:55;;;;;;;22.50;13.70;;;4.10;90.10;;;4.50;72.04;99051.00;4986912;28;20078;-81
2020/12/06 02:09:22;;;;;;;23.65;14.40;;;4.00;90.10;;;4.47;72.17;99040.59;4986841;28;20086;-81
2020/12/06 02:11:50;;;;;;;26.65;15.05;;;3.90;89.80;;;4.49;72.25;99054.72;4985864;28;20077;-81
2020/12/06 02:14:17;;;;;;;26.80;15.18;;;4.00;90.00;;;4.49;72.33;99071.72;4984042;28;20510;-81
2020/12/06 02:16:44;;;;;;;24.08;15.35;;;4.00;90.00;;;4.54;72.39;99065.78;4983558;28;20483;-80
2020/12/06 02:19:13;;;;;;;25.42;15.13;;;4.00;90.00;;;4.54;72.58;99083.81;4982771;28;20071;-81
2020/12/06 02:21:42;;;;;;;26.02;15.63;;;4.00;89.90;;;4.55;72.12;99090.84;4982025;28;20039;-81
2020/12/06 02:24:10;;;;;;;25.98;15.35;;;4.00;90.00;;;4.52;72.43;99092.06;4980242;28;20050;-80
2020/12/06 02:26:41;;;;;;;24.90;15.55;;;4.00;90.00;;;4.53;72.60;99093.72;4977630;28;20129;-81
2020/12/06 02:29:08;;;;;;;24.48;14.55;;;4.00;90.00;;;4.60;72.38;99093.84;4977093;28;20077;-81
2020/12/06 02:31:35;;;;;;;22.80;13.98;;;4.00;90.10;;;4.57;72.19;99094.22;4976572;28;20070;-81
2020/12/06 02:34:02;;;;;;;24.42;14.43;;;4.00;89.90;;;4.57;72.36;99095.06;4976484;28;20062;-81
2020/12/06 02:36:29;;;;;;;24.58;14.23;;;4.00;90.10;;;4.59;72.26;99087.63;4976221;28;20047;-80
2020/12/06 02:38:56;;;;;;;23.90;14.65;;;4.00;90.30;;;4.55;72.26;99080.94;4976919;28;20077;-81
2020/12/06 02:41:33;;;;;;;23.25;14.93;;;4.20;90.10;;;4.50;72.22;99075.25;4977737;28;20101;-80
2020/12/06 02:44:00;;;;;;;24.92;14.60;;;4.00;90.00;;;4.47;72.13;99073.78;4978904;28;20077;-80
2020/12/06 02:46:27;;;;;;;21.70;13.43;;;3.90;89.80;;;4.46;72.33;99065.88;4978964;28;20133;-81
2020/12/06 02:48:53;;;;;;;24.77;14.75;;;3.90;90.00;;;4.49;72.40;99060.94;4978510;28;20049;-81
2020/12/06 02:51:20;;;;;;;27.00;15.30;;;3.90;90.00;;;4.50;72.15;99067.16;4978686;28;20105;-81
2020/12/06 02:53:47;;;;;;;23.70;14.45;;;3.90;89.90;;;4.46;72.25;99050.53;4977803;28;20521;-81
2020/12/06 02:56:14;;;;;;;23.60;14.13;;;3.90;90.00;;;4.45;72.18;99048.00;4978273;28;20077;-81
2020/12/06 02:58:41;;;;;;;22.30;13.63;;;3.90;89.90;;;4.45;72.32;99039.94;4977785;28;20043;-81
2020/12/06 03:01:08;;;;;;;21.65;14.23;;;3.90;90.00;;;4.44;72.02;99051.75;4977639;28;20054;-81
2020/12/06 03:03:35;;;;;;;25.23;14.77;;;3.90;90.00;;;4.45;72.48;99054.22;4977378;28;20523;-81
2020/12/06 03:06:01;;;;;;;26.20;14.90;;;3.90;90.00;;;4.45;72.48;99045.31;4976659;28;20105;-81
2020/12/06 03:08:29;;;;;;;23.25;13.65;;;3.90;90.40;;;4.47;72.34;99049.53;4976583;28;20049;-81
2020/12/06 03:10:56;;;;;;;22.42;14.57;;;4.00;90.50;;;4.43;72.59;99061.66;4976257;28;20050;-81
2020/12/06 03:13:23;;;;;;;21.95;14.40;;;3.90;90.50;;;4.40;72.37;99066.56;4973580;28;20055;-81
2020/12/06 03:15:50;;;;;;;24.83;14.30;;;3.80;90.20;;;4.43;72.56;99082.38;4974310;28;20456;-81
2020/12/06 03:18:17;;;;;;;25.20;14.93;;;3.90;90.50;;;4.44;72.83;99078.69;4974417;28;20452;-80
2020/12/06 03:20:44;;;;;;;24.23;14.55;;;3.90;90.70;;;4.51;72.51;99079.59;4974334;28;20078;-81
2020/12/06 03:23:10;;;;;;;26.08;14.45;;;3.90;90.90;;;4.49;72.57;99076.25;4974283;28;20074;-81
2020/12/06 03:25:37;;;;;;;23.23;14.60;;;3.90;90.80;;;4.49;72.93;99087.03;4974329;28;20050;-81
2020/12/06 03:28:04;;;;;;;26.20;15.40;;;4.30;91.20;;;4.50;72.97;99086.03;4976222;28;20141;-81
2020/12/06 03:30:32;;;;;;;23.50;14.45;;;4.00;91.00;;;4.51;72.98;99093.06;4976642;28;20066;-81
2020/12/06 03:32:58;;;;;;;25.63;14.30;;;4.00;90.90;;;4.51;73.49;99090.38;4977113;28;20105;-81
2020/12/06 03:35:25;;;;;;;23.70;14.07;;;4.00;91.00;;;4.47;73.17;99081.00;4976292;28;20050;-81
2020/12/06 03:37:52;;;;;;;21.63;13.07;;;4.20;91.10;;;4.41;73.05;99084.41;4976281;28;20130;-81
2020/12/06 03:40:19;;;;;;;22.48;13.88;;;4.20;90.70;;;4.40;72.94;99077.34;4976344;28;20082;-81
2020/12/06 03:42:45;;;;;;;24.45;13.75;;;4.00;90.50;;;4.43;73.25;99082.38;4973123;28;20067;-81
2020/12/06 03:45:12;;;;;;;22.60;12.98;;;4.00;90.70;;;4.44;73.07;99074.13;4976560;28;20074;-81
2020/12/06 03:47:40;;;;;;;21.27;13.38;;;4.00;90.70;;;4.47;73.47;99078.28;4976425;28;20066;-80
2020/12/06 03:50:07;;;;;;;25.25;13.68;;;4.00;90.70;;;4.46;73.16;99080.16;4976880;28;20047;-80
2020/12/06 03:52:33;;;;;;;23.25;14.38;;;4.00;90.70;;;4.50;73.44;99072.56;4976749;28;20050;-81
2020/12/06 03:55:00;;;;;;;22.55;13.60;;;4.10;90.90;;;4.52;73.09;99081.28;4976892;28;20492;-81
2020/12/06 03:57:27;;;;;;;24.48;14.10;;;4.10;91.00;;;4.46;73.54;99077.47;4975369;28;20412;-81
2020/12/06 03:59:54;;;;;;;24.73;14.40;;;4.10;91.00;;;4.42;74.07;99086.09;4976952;28;20047;-81
2020/12/06 04:02:20;;;;;;;24.23;14.23;;;4.20;90.80;;;4.43;74.04;99090.44;4977590;28;20058;-81
2020/12/06 04:04:48;;;;;;;22.80;13.65;;;4.20;90.70;;;4.44;74.01;99095.66;4974868;28;20495;-81
2020/12/06 04:07:15;;;;;;;23.25;12.80;;;4.20;90.60;;;4.45;73.94;99080.34;4977549;28;20561;-81
2020/12/06 04:09:41;;;;;;;27.17;15.18;;;4.20;90.60;;;4.45;74.05;99061.47;4976478;28;20070;-81
2020/12/06 04:12:08;;;;;;;23.98;14.60;;;4.20;90.40;;;4.50;73.99;99068.00;4976105;28;20074;-81
2020/12/06 04:14:35;;;;;;;23.92;13.95;;;4.20;90.70;;;4.55;73.96;99048.63;4976636;28;20055;-80
2020/12/06 04:17:02;;;;;;;25.73;13.98;;;4.30;90.90;;;4.57;73.72;99045.72;4976451;28;20066;-80
2020/12/06 04:19:28;;;;;;;24.85;14.07;;;4.20;90.80;;;4.56;73.87;99055.66;4976853;28;20059;-81
2020/12/06 04:21:56;;;;;;;23.00;13.95;;;4.20;90.80;;;4.51;74.00;99055.34;4977291;28;20078;-81
2020/12/06 04:24:23;;;;;;;26.17;15.27;;;4.20;90.50;;;4.56;74.00;99044.88;4977866;28;20181;-81
2020/12/06 04:26:50;;;;;;;26.38;15.20;;;4.20;90.70;;;4.62;73.19;99022.59;4981080;28;20062;-81
2020/12/06 04:29:17;;;;;;;29.63;15.57;;;4.30;90.40;;;4.64;73.49;99019.72;4979285;28;20150;-81
2020/12/06 04:31:44;;;;;;;28.17;16.67;;;4.30;90.40;;;4.65;73.27;99032.19;4981247;28;20073;-80
2020/12/06 04:34:10;;;;;;;27.38;15.77;;;4.30;90.60;;;4.62;73.40;99021.75;4980626;28;20418;-81
2020/12/06 04:36:37;;;;;;;29.45;15.57;;;4.30;90.50;;;4.61;73.69;99018.25;4980157;28;20085;-81
2020/12/06 04:39:05;;;;;;;26.63;15.80;;;4.30;90.40;;;4.64;73.32;99020.56;4978883;28;20070;-81
2020/12/06 04:41:31;;;;;;;31.67;17.30;;;4.30;90.40;;;4.61;73.32;99020.94;4980072;28;20565;-81
2020/12/06 04:43:58;;;;;;;28.10;16.42;;;4.30;90.30;;;4.62;72.99;99032.53;4981259;28;20043;-81
2020/12/06 04:46:27;;;;;;;29.65;17.15;;;4.30;90.20;;;4.57;73.53;99030.41;4981532;28;20120;-81
2020/12/06 04:49:11;;;;;;;29.67;16.95;;;4.30;90.30;;;4.56;73.84;99027.88;4979698;28;20605;-82
2020/12/06 04:51:42;;;;;;;30.52;16.60;;;4.40;90.10;;;4.59;73.98;99035.59;4981505;28;20097;-81
2020/12/06 04:54:11;;;;;;;31.00;17.77;;;4.30;90.30;;;4.57;73.70;99025.03;4981377;28;20069;-81
2020/12/06 04:56:38;;;;;;;32.15;18.13;;;4.50;90.40;;;4.60;73.64;99030.03;4980986;28;20495;-81
2020/12/06 04:59:06;;;;;;;30.92;17.52;;;4.40;90.10;;;4.59;73.59;99030.19;4981171;28;20757;-81
2020/12/06 05:01:35;;;;;;;29.00;17.20;;;4.40;90.10;;;4.59;73.74;99039.16;4981644;28;20043;-81
2020/12/06 05:04:10;;;;;;;29.90;16.70;;;4.40;90.00;;;4.60;73.71;99037.28;4980599;28;20046;-81
2020/12/06 05:06:39;;;;;;;27.77;16.83;;;4.60;89.90;;;4.58;73.64;99040.16;4980926;28;20061;-81
2020/12/06 05:09:11;;;;;;;30.40;17.60;;;4.50;89.90;;;4.59;73.54;99044.53;4980822;28;20078;-80
2020/12/06 05:11:38;;;;;;;;;;;4.40;89.60;;;4.62;73.43;99052.22;4981493;28;20450;-81
2020/12/06 05:14:06;;;;;;;27.83;16.80;;;4.50;89.70;;;4.64;73.66;99041.28;4980562;28;19926;-81
2020/12/06 05:16:34;;;;;;;29.40;16.48;;;4.50;89.70;;;4.66;73.74;99028.47;4981126;28;20101;-81
2020/12/06 05:19:01;;;;;;;29.90;18.08;;;4.50;89.90;;;4.67;73.86;99024.75;4980243;28;20879;-81
2020/12/06 05:21:34;;;;;;;28.70;16.95;;;4.70;90.00;;;4.66;73.76;99020.38;4980335;28;20074;-81
2020/12/06 05:24:02;;;;;;;29.83;17.65;;;4.50;89.80;;;4.65;73.81;99027.63;4980117;28;20070;-81
2020/12/06 05:26:30;;;;;;;28.05;16.83;;;4.50;90.00;;;4.66;73.76;99032.00;4980348;28;20392;-81
2020/12/06 05:28:58;;;;;;;30.42;16.13;;;4.50;90.00;;;4.60;74.13;99024.63;4980497;28;20043;-81
2020/12/06 05:31:26;;;;;;;32.72;17.00;;;4.50;90.00;;;4.63;74.25;99018.91;4980454;28;20081;-81
2020/12/06 05:33:54;;;;;;;27.13;16.08;;;4.50;90.00;;;4.63;74.31;99024.28;4979970;28;20510;-81
2020/12/06 05:36:22;;;;;;;29.65;16.48;;;4.70;90.10;;;4.65;74.36;99019.53;4978094;28;20125;-81
2020/12/06 05:38:49;;;;;;;29.83;17.08;;;4.50;89.90;;;4.66;74.06;99015.84;4976880;28;20062;-80
2020/12/06 05:41:17;;;;;;;30.55;16.70;;;4.60;90.00;;;4.67;73.78;99009.41;4977574;28;20046;-81
2020/12/06 05:43:45;;;;;;;29.27;16.98;;;4.50;90.00;;;4.72;73.95;98999.94;4976679;28;20039;-81
2020/12/06 05:46:14;;;;;;;29.25;16.33;;;4.50;90.20;;;4.66;74.17;98999.69;4977173;28;20089;-81
2020/12/06 05:48:42;;;;;;;28.40;16.95;;;4.50;90.00;;;4.63;74.20;98997.34;4982431;28;20057;-81
2020/12/06 05:51:11;;;;;;;28.95;17.15;;;4.60;90.00;;;4.63;74.38;98994.66;4985051;28;20066;-81
2020/12/06 05:53:38;;;;;;;29.60;17.13;;;4.60;89.90;;;4.65;74.49;99008.75;4969488;28;20051;-81
2020/12/06 05:56:13;;;;;;;28.23;17.23;;;4.60;89.90;;;4.65;74.18;99016.84;4967547;28;20078;-81
2020/12/06 05:58:42;;;;;;;29.65;16.98;;;4.60;89.80;;;4.69;74.10;99018.16;4965975;28;20050;-81
2020/12/06 06:01:11;;;;;;;29.98;17.45;;;4.60;90.00;;;4.70;74.24;99027.94;4964707;28;20035;-81
2020/12/06 06:03:41;;;;;;;27.45;17.08;;;4.60;90.10;;;4.71;74.47;99026.06;4963704;28;20109;-81
2020/12/06 06:06:13;;;;;;;31.20;18.60;;;4.60;90.20;;;4.73;74.16;99033.97;4962944;28;20452;-81
2020/12/06 06:08:45;;;;;;;30.38;16.85;;;4.60;90.10;;;4.75;74.40;99031.91;4961770;28;20504;-81
2020/12/06 06:11:27;;;;;;;33.67;17.83;;;4.60;90.30;;;4.68;74.31;99032.66;4961712;28;20081;-81
2020/12/06 06:13:58;;;;;;;33.38;18.52;;;4.60;90.10;;;4.73;74.51;99039.34;4959523;28;20098;-81
2020/12/06 06:16:28;;;;;;;36.35;18.50;;;4.60;90.10;;;4.75;74.22;99037.31;4961158;28;20051;-81
2020/12/06 06:18:58;;;;;;;30.95;17.08;;;4.60;90.10;;;4.77;74.34;99037.97;4961235;28;20521;-81
2020/12/06 06:21:28;;;;;;;30.98;19.00;;;4.70;90.10;;;4.72;74.61;99026.88;4960625;28;20534;-81
2020/12/06 06:23:59;;;;;;;30.95;17.20;;;4.60;90.20;;;4.67;74.29;99020.19;4959648;28;20106;-81
2020/12/06 06:26:32;;;;;;;30.02;17.13;;;4.60;90.00;;;4.70;74.60;99022.53;4960411;28;20055;-81
2020/12/06 06:28:59;;;;;;;29.08;17.50;;;4.70;90.10;;;4.73;74.26;99033.97;4960255;28;20039;-81
2020/12/06 06:31:31;;;;;;;30.70;17.52;;;4.70;90.00;;;4.74;74.53;99036.47;4960779;28;20107;-81
2020/12/06 06:33:57;;;;;;;30.30;18.35;;;4.70;90.00;;;4.76;74.23;99028.19;4959425;28;20047;-81
2020/12/06 06:36:29;;;;;;;31.02;19.17;;;4.70;90.10;;;4.78;74.54;99020.75;4958994;28;20067;-83
2020/12/06 06:38:57;;;;;;;33.22;19.65;;;4.60;90.30;;;4.76;74.45;99025.50;4959038;28;20067;-82
2020/12/06 06:41:27;;;;;;;34.50;20.83;;;4.80;90.20;;;4.77;74.10;99019.94;4959150;28;20454;-82
2020/12/06 06:44:00;;;;;;;34.83;20.13;;;4.70;90.10;;;4.77;73.92;99032.56;4959060;28;20081;-82
2020/12/06 06:46:33;;;;;;;31.25;19.23;;;4.70;90.00;;;4.76;74.41;99025.50;4959902;28;20106;-82
2020/12/06 06:49:09;;;;;;;33.45;20.02;;;4.70;89.90;;;4.82;74.02;99017.53;4959428;28;20043;-82
2020/12/06 06:51:37;;;;;;;34.55;19.95;;;4.80;90.00;;;4.83;74.19;98996.78;4959433;28;20085;-82
2020/12/06 06:54:07;;;;;;;33.97;20.00;;;4.70;90.10;;;4.87;74.21;99004.34;4960412;28;20043;-82
2020/12/06 06:56:49;;;;;;;34.40;19.88;;;4.70;90.10;;;4.86;74.10;99001.81;4959563;28;20524;-82
2020/12/06 06:59:16;;;;;;;36.00;19.90;;;4.60;90.20;;;4.84;74.20;98999.31;4960276;28;20112;-82
2020/12/06 07:01:49;;;;;;;36.47;20.13;;;4.70;90.20;;;4.82;74.41;99000.53;4959328;28;20078;-82
2020/12/06 07:04:19;;;;;;;36.97;20.40;;;4.60;90.20;;;4.77;74.60;98998.38;4959760;28;20051;-83
2020/12/06 07:06:48;;;;;;;35.60;21.77;;;4.70;90.40;;;4.76;74.34;98987.75;4958964;28;20047;-83
2020/12/06 07:09:21;;;;;;;35.28;21.70;;;4.70;90.30;;;4.74;74.61;98977.19;4956330;28;20102;-81
2020/12/06 07:11:48;;;;;;;35.78;20.83;;;4.70;90.10;;;4.73;74.68;98978.19;4958568;28;20076;-79
2020/12/06 07:14:15;;;;;;;37.35;22.92;;;4.70;90.20;;;4.76;74.46;98982.38;4967491;28;20652;-79
2020/12/06 07:16:42;;;;;;;38.28;22.75;;;4.80;90.20;;;4.77;74.45;98986.75;4968100;28;20051;-79
2020/12/06 07:19:10;;;;;;;40.30;23.67;;;4.70;90.10;;;4.84;74.63;98988.53;4968082;28;20416;-79
2020/12/06 07:21:37;;;;;;;40.72;22.85;;;4.70;90.30;;;4.86;74.29;98991.88;4968519;28;20043;-79
2020/12/06 07:24:05;;;;;;;41.05;22.92;;;4.70;90.40;;;4.88;74.63;98995.22;4982839;28;20070;-80
2020/12/06 07:26:32;;;;;;;37.15;21.85;;;4.80;90.50;;;4.87;74.75;98998.09;4969289;28;20047;-79
2020/12/06 07:28:59;;;;;;;40.45;21.77;;;4.70;90.50;;;4.87;74.40;98998.94;4967835;28;20047;-79
2020/12/06 07:31:27;;;;;;;38.13;23.75;;;4.70;90.70;;;4.87;74.30;98992.69;4966967;28;20094;-79
2020/12/06 07:33:54;;;;;;;37.58;22.38;;;4.70;90.60;;;4.89;74.43;98990.66;4966896;28;20047;-79
2020/12/06 07:36:22;;;;;;;35.22;21.23;;;4.90;90.70;;;4.87;74.58;98987.31;4965983;28;20072;-80
2020/12/06 07:38:49;;;;;;;36.42;21.17;;;4.70;90.70;;;4.84;74.40;98990.41;4966487;28;20043;-79
2020/12/06 07:41:16;;;;;;;37.05;21.35;;;4.70;90.60;;;4.87;74.50;98990.00;4965679;28;20055;-79
2020/12/06 07:43:42;;;;;;;36.90;21.40;;;4.70;90.70;;;4.90;74.48;98995.03;4967149;28;20047;-80
2020/12/06 07:46:15;;;;;;;41.15;23.00;;;4.70;90.90;;;4.89;74.56;98996.03;4967473;28;20038;-79
2020/12/06 07:48:42;;;;;;;37.22;21.20;;;4.70;90.80;;;4.95;74.59;98991.78;4967166;28;20233;-79
2020/12/06 07:51:09;;;;;;;34.70;21.25;;;4.70;90.80;;;4.95;74.63;98989.94;4969416;28;20047;-79
2020/12/06 07:53:51;;;;;;;38.03;21.35;;;4.80;90.80;;;4.95;74.84;99016.03;4967582;28;20067;-79
2020/12/06 07:56:21;;;;;;;37.92;21.80;;;4.80;91.00;;;4.93;74.79;99016.25;4967745;28;20109;-79
2020/12/06 07:59:18;;;;;;;37.95;21.63;;;4.80;90.80;;;4.95;74.86;99021.41;4967059;28;20051;-79
2020/12/06 08:01:48;;;;;;;37.05;21.42;;;4.80;90.70;;;4.93;74.91;99020.78;4968888;28;20067;-79
2020/12/06 08:04:28;;;;;;;37.25;21.10;;;4.80;90.70;;;4.94;75.03;99019.75;4982619;28;20035;-79
2020/12/06 08:07:03;;;;;;;38.28;21.42;;;4.90;90.80;;;4.97;74.73;99028.31;4982240;28;20047;-80
2020/12/06 08:09:38;;;;;;;41.50;22.10;;;4.90;90.70;;;4.97;75.11;99031.03;4967839;28;20051;-79
2020/12/06 08:12:08;;;;;;;32.53;19.90;;;4.90;90.70;;;5.00;75.00;99030.63;4966367;28;20079;-79
2020/12/06 08:14:38;;;;;;;41.20;22.15;;;4.90;90.60;;;5.05;74.86;99022.00;4966920;28;20055;-79
2020/12/06 08:17:14;;;;;;;38.85;21.13;;;4.90;90.60;;;5.11;74.40;99015.84;4966002;29;20065;-79
2020/12/06 08:19:42;;;;;;;40.17;21.95;;;4.90;90.50;;;5.07;74.77;99025.34;4967935;28;20048;-79
2020/12/06 08:22:08;;;;;;;37.50;21.15;;;4.90;90.40;;;5.06;74.67;99024.53;4966963;28;20083;-79
2020/12/06 08:24:36;;;;;;;35.17;20.95;;;4.90;90.40;;;5.06;74.85;99019.13;4965583;28;20074;-79
2020/12/06 08:27:03;;;;;;;38.22;21.30;;;5.00;90.60;;;5.11;74.81;99021.25;4966044;28;20578;-78
2020/12/06 08:29:39;;;;;;;37.90;21.33;;;5.00;90.60;;;5.09;74.60;99013.34;4968222;28;20585;-79
2020/12/06 08:32:06;;;;;;;38.70;21.05;;;5.00;90.50;;;5.09;74.76;99013.34;4968682;28;20078;-78
2020/12/06 08:34:33;;;;;;;38.78;21.52;;;5.00;90.40;;;5.10;74.83;99008.78;4962901;28;20127;-79
2020/12/06 08:37:17;;;;;;;39.67;22.27;;;5.00;90.40;;;5.14;74.38;99003.84;4964234;28;20040;-79
2020/12/06 08:39:46;;;;;;;37.50;21.17;;;5.00;90.30;;;5.11;74.88;98993.47;4965221;28;20047;-79
2020/12/06 08:42:18;;;;;;;38.38;21.70;;;5.00;90.50;;;5.08;75.02;98992.81;4966485;28;20059;-78
2020/12/06 08:44:59;;;;;;;36.95;21.23;;;5.10;90.50;;;5.10;74.92;99008.78;4966176;28;20039;-78
2020/12/06 08:47:39;;;;;;;37.80;21.23;;;5.10;90.60;;;5.11;74.98;99010.47;4967379;28;20047;-79
2020/12/06 08:50:10;;;;;;;37.20;22.13;;;5.10;90.50;;;5.09;75.15;98997.16;4967224;28;20051;-79
2020/12/06 08:52:37;;;;;;;39.53;21.42;;;5.10;90.50;;;5.11;75.40;98998.84;4965676;28;20432;-78
2020/12/06 08:55:27;;;;;;;37.83;22.48;;;5.10;90.50;;;5.11;75.22;98991.59;4965535;28;20645;-78
2020/12/06 08:57:55;;;;;;;39.72;22.60;;;5.10;90.60;;;5.12;75.43;98995.13;4964840;28;20051;-79
2020/12/06 09:00:22;;;;;;;37.92;21.13;;;5.10;90.60;;;5.12;75.42;99001.34;4981495;28;20059;-78
2020/12/06 09:02:49;;;;;;;43.92;22.42;;;5.20;90.60;;;5.16;75.42;98996.41;4965307;28;20059;-79
2020/12/06 09:05:16;;;;;;;39.53;22.38;;;5.20;90.50;;;5.19;75.51;98994.19;4958262;28;20105;-77
2020/12/06 09:07:45;;;;;;;39.08;21.58;;;5.20;90.50;;;5.19;75.55;98996.03;4952440;28;20044;-78
2020/12/06 09:10:11;;;;;;;39.35;22.90;;;5.20;90.50;;;5.26;75.60;98992.41;4973329;28;20575;-78
2020/12/06 09:12:39;;;;;;;43.30;23.40;;;5.30;90.70;;;5.24;75.54;98993.63;4969240;28;20055;-77
2020/12/06 09:15:07;;;;;;;42.70;22.85;;;5.30;90.50;;;5.27;75.77;98994.09;4954752;28;20456;-77
2020/12/06 09:17:35;;;;;;;40.33;22.25;;;5.30;90.70;;;5.28;76.04;98990.34;4958572;28;20051;-79
2020/12/06 09:20:01;;;;;;;41.65;22.88;;;5.30;90.80;;;5.34;75.40;98988.78;4965563;28;20114;-83
2020/12/06 09:22:28;;;;;;;37.97;21.48;;;5.30;90.70;;;5.32;75.80;98990.00;4961682;28;20091;-77
2020/12/06 09:24:55;;;;;;;39.13;21.55;;;5.40;90.90;;;5.35;75.81;98985.06;4961527;28;20389;-78
2020/12/06 09:27:22;;;;;;;41.45;22.90;;;5.40;90.80;;;5.33;75.84;98979.03;4965003;28;20496;-78
2020/12/06 09:29:49;;;;;;;42.38;23.38;;;5.40;91.10;;;5.44;75.57;98977.69;4964763;28;20082;-79
2020/12/06 09:32:16;;;;;;;41.67;23.70;;;5.40;90.80;;;5.39;75.84;98953.97;4959468;28;20106;-78
2020/12/06 09:34:43;;;;;;;42.85;23.80;;;5.40;90.80;;;5.43;76.03;98960.66;4958365;28;20047;-78
2020/12/06 09:37:10;;;;;;;43.70;23.27;;;5.40;90.70;;;5.52;75.45;98957.84;4960692;28;20098;-78
2020/12/06 09:39:36;;;;;;;38.67;21.90;;;5.40;90.60;;;5.46;75.84;98957.59;4969407;28;20048;-78
2020/12/06 09:42:03;;;;;;;41.63;22.65;;;5.50;91.00;;;5.45;76.33;98960.47;4966871;28;20046;-79
2020/12/06 09:44:30;;;;;;;41.78;22.55;;;5.50;91.30;;;5.43;76.37;98971.44;4977411;28;20047;-79
2020/12/06 09:46:57;;;;;;;40.25;22.73;;;5.50;91.10;;;5.46;76.05;98959.44;4987996;28;20043;-78
2020/12/06 09:49:24;;;;;;;40.83;21.38;;;5.50;91.00;;;5.47;76.02;98959.25;4989696;28;20183;-78
2020/12/06 09:51:51;;;;;;;39.00;21.70;;;5.50;90.90;;;5.47;76.08;98961.94;4989192;28;20055;-78
2020/12/06 09:54:18;;;;;;;38.75;22.52;;;5.80;90.90;;;5.55;75.83;98962.88;4986404;28;20059;-78
2020/12/06 09:56:44;;;;;;;42.05;23.15;;;5.60;90.80;;;5.57;75.75;98972.44;4988812;28;20089;-78
2020/12/06 09:59:11;;;;;;;38.33;21.85;;;5.60;90.60;;;5.64;75.27;98975.22;4986743;28;20039;-79
2020/12/06 10:01:38;;;;;;;39.75;22.25;;;5.60;90.60;;;5.63;75.55;98965.44;4985191;28;20121;-79
2020/12/06 10:04:05;;;;;;;39.13;22.27;;;5.60;90.80;;;5.59;75.56;98964.16;4984550;28;20055;-78
2020/12/06 10:06:32;;;;;;;41.17;22.77;;;5.60;90.90;;;5.59;75.58;98967.69;4984910;28;20042;-79
2020/12/06 10:08:59;;;;;;;41.40;22.50;;;5.60;90.60;;;5.56;75.68;98970.78;4982992;28;20050;-78
2020/12/06 10:11:26;;;;;;;41.55;23.15;;;5.60;90.90;;;5.54;76.57;98975.53;4983275;28;20050;-78
2020/12/06 10:13:53;;;;;;;41.88;22.65;;;5.70;91.20;;;5.56;76.69;98981.56;4983691;28;20042;-78
2020/12/06 10:16:20;;;;;;;40.53;22.40;;;5.70;91.30;;;5.63;75.92;98982.47;4982393;28;20649;-78
2020/12/06 10:18:46;;;;;;;41.95;23.00;;;5.70;91.00;;;5.65;76.23;98984.97;4983583;28;20038;-78
2020/12/06 10:21:15;;;;;;;39.70;21.90;;;5.70;90.90;;;5.64;76.03;98992.25;4984575;28;20046;-79
2020/12/06 10:23:42;;;;;;;42.03;22.55;;;5.70;90.80;;;5.63;76.28;98992.44;4983757;28;20051;-79
2020/12/06 10:26:09;;;;;;;42.65;23.00;;;5.80;91.00;;;5.64;76.54;98983.31;4982678;28;20134;-78